This is the latest recevied weather packets stored in our database for station/object K6JWN. If no packets are shown the sender has not sent any weather packets the latest 10 day(s).
| Time | Temp. | Humidity | Pressure | Rain* | Wind** | Luminosity | Snow |
|---|---|---|---|---|---|---|---|
| 1787410457 | 18.33° C | 54% | 1016.2 hPa | 0 mm | - | - | - |
| 1787409856 | 17.78° C | 56% | 1016.3 hPa | 0 mm | - | - | - |
| 1787409256 | 17.22° C | 59% | 1016.2 hPa | 0 mm | - | - | - |
| 1787408656 | 16.11° C | 63% | 1016.1 hPa | 0 mm | - | - | - |
| 1787408056 | 14.44° C | 65% | 1016 hPa | 0 mm | - | - | - |
| 1787407456 | 14.44° C | 65% | 1015.8 hPa | 0 mm | - | - | - |
| 1787406856 | 14.44° C | 65% | 1015.7 hPa | 0 mm | - | - | - |
| 1787406256 | 14.44° C | 64% | 1015.5 hPa | 0 mm | - | - | - |
| 1787405656 | 14.44° C | 64% | 1015.5 hPa | 0 mm | - | - | - |
| 1787405056 | 15° C | 63% | 1015.5 hPa | 0 mm | - | - | - |
| 1787404456 | 15° C | 63% | 1015.5 hPa | 0 mm | - | - | - |
| 1787403856 | 15° C | 62% | 1015.5 hPa | 0 mm | - | - | - |
| 1787403256 | 15° C | 62% | 1015.4 hPa | 0 mm | - | - | - |
| 1787402656 | 15° C | 62% | 1015.1 hPa | 0 mm | - | - | - |
| 1787402056 | 15° C | 62% | 1015.1 hPa | 0 mm | - | - | - |
| 1787401456 | 15° C | 62% | 1015 hPa | 0 mm | - | - | - |
| 1787400856 | 15° C | 62% | 1015 hPa | 0 mm | - | - | - |
| 1787400256 | 15° C | 62% | 1014.9 hPa | 0 mm | - | - | - |
| 1787399656 | 15.56° C | 61% | 1014.8 hPa | 0 mm | - | - | - |
| 1787399056 | 15.56° C | 60% | 1014.9 hPa | 0 mm | - | - | - |
| 1787398456 | 16.11° C | 59% | 1014.8 hPa | 0 mm | - | - | - |
| 1787397856 | 16.11° C | 59% | 1014.8 hPa | 0 mm | - | - | - |
| 1787397256 | 15.56° C | 60% | 1014.9 hPa | 0 mm | - | - | - |
| 1787396656 | 15.56° C | 60% | 1014.7 hPa | 0 mm | - | - | - |
| 1787396056 | 16.11° C | 59% | 1014.8 hPa | 0 mm | - | - | - |
* Rain latest hour (hover to see other rain measurements)
** Current wind speed in m/s (hover to see current wind gust speed)